createdAt,value
2023-01-29T00:01:18.264Z,3.88
2023-01-29T00:03:44.632Z,3.87
2023-01-29T00:06:11.828Z,3.88
2023-01-29T00:08:38.897Z,3.89
2023-01-29T00:11:07.828Z,3.89
2023-01-29T00:13:34.853Z,3.89
2023-01-29T00:16:01.788Z,3.88
2023-01-29T00:18:29.093Z,3.88
2023-01-29T00:20:56.145Z,3.89
2023-01-29T00:23:23.442Z,3.88
2023-01-29T00:25:49.803Z,3.88
2023-01-29T00:28:16.158Z,3.89
2023-01-29T00:30:42.651Z,3.89
2023-01-29T00:33:08.966Z,3.89
2023-01-29T00:35:35.295Z,3.89
2023-01-29T00:38:01.663Z,3.89
2023-01-29T00:40:28.058Z,3.90
2023-01-29T00:43:13.071Z,3.89
2023-01-29T00:45:39.611Z,3.89
2023-01-29T00:48:06.309Z,3.90
2023-01-29T00:50:32.789Z,3.88
2023-01-29T00:52:59.108Z,3.88
2023-01-29T00:55:25.425Z,3.89
2023-01-29T00:57:51.786Z,3.88
2023-01-29T01:00:19.280Z,3.88
2023-01-29T01:03:04.039Z,3.88
2023-01-29T01:05:30.378Z,3.88
2023-01-29T01:07:57.909Z,3.87
2023-01-29T01:10:33.048Z,3.86
2023-01-29T01:13:05.093Z,3.87
2023-01-29T01:15:35.451Z,3.85
2023-01-29T01:18:02.888Z,3.84
2023-01-29T01:20:31.553Z,3.84
2023-01-29T01:22:58.025Z,3.82
2023-01-29T01:25:26.651Z,3.82
2023-01-29T01:27:54.378Z,3.80
2023-01-29T01:30:21.028Z,3.79
2023-01-29T01:32:47.410Z,3.80
2023-01-29T01:35:14.774Z,3.78
2023-01-29T01:37:41.798Z,3.78
2023-01-29T01:40:18.993Z,3.78
2023-01-29T01:42:52.540Z,3.79
2023-01-29T01:45:24.778Z,3.77
2023-01-29T01:47:56.263Z,3.78
2023-01-29T01:50:42.589Z,3.77
2023-01-29T01:53:14.490Z,3.77
2023-01-29T01:55:55.241Z,3.77
2023-01-29T01:58:26.556Z,3.78
2023-01-29T02:00:53.443Z,3.77
2023-01-29T02:03:41.385Z,3.77
2023-01-29T02:06:28.816Z,3.77
2023-01-29T02:09:21.995Z,3.78
2023-01-29T02:11:48.391Z,3.77
2023-01-29T02:14:14.746Z,3.78
2023-01-29T02:16:41.144Z,3.78
2023-01-29T02:19:34.687Z,3.78
2023-01-29T02:22:21.581Z,3.81
2023-01-29T02:25:00.118Z,3.80
2023-01-29T02:27:57.543Z,3.82
2023-01-29T02:30:33.552Z,3.82
2023-01-29T02:33:22.330Z,3.82
2023-01-29T02:35:58.610Z,3.82
2023-01-29T02:38:55.502Z,3.83
2023-01-29T02:41:27.828Z,3.82
2023-01-29T02:44:20.338Z,3.81
2023-01-29T02:46:56.399Z,3.83
2023-01-29T02:49:52.579Z,3.81
2023-01-29T02:52:25.248Z,3.82
2023-01-29T02:55:04.715Z,3.82
2023-01-29T02:57:36.890Z,3.81
2023-01-29T03:00:16.179Z,3.81
2023-01-29T03:03:08.768Z,3.81
2023-01-29T03:05:45.645Z,3.81
2023-01-29T03:08:18.324Z,3.81
2023-01-29T03:10:53.890Z,3.81
2023-01-29T03:13:35.507Z,3.82
2023-01-29T03:16:14.095Z,3.81
2023-01-29T03:18:46.236Z,3.80
2023-01-29T03:21:55.203Z,3.81
2023-01-29T03:24:50.534Z,3.82
2023-01-29T03:27:39.159Z,3.81
2023-01-29T03:30:27.852Z,3.79
2023-01-29T03:32:56.223Z,3.80
2023-01-29T03:35:36.435Z,3.81
2023-01-29T03:38:05.455Z,3.79
2023-01-29T03:40:43.671Z,3.80
2023-01-29T03:43:32.932Z,3.80
2023-01-29T03:46:19.927Z,3.81
2023-01-29T03:49:18.540Z,3.83
2023-01-29T03:52:11.024Z,3.84
2023-01-29T03:54:57.682Z,3.84
2023-01-29T03:57:39.157Z,3.85
2023-01-29T04:00:21.244Z,3.84
2023-01-29T04:02:55.496Z,3.84
2023-01-29T04:05:27.341Z,3.84
2023-01-29T04:08:02.443Z,3.84
2023-01-29T04:10:29.668Z,3.84
2023-01-29T04:13:04.285Z,3.84
2023-01-29T04:15:36.404Z,3.83
2023-01-29T04:18:02.795Z,3.83
2023-01-29T04:20:29.190Z,3.83
2023-01-29T04:22:55.884Z,3.83
2023-01-29T04:25:28.871Z,3.82
2023-01-29T04:28:08.627Z,3.83
2023-01-29T04:30:44.873Z,3.83
2023-01-29T04:33:11.208Z,3.81
2023-01-29T04:35:40.562Z,3.82
2023-01-29T04:38:34.205Z,3.83
2023-01-29T04:41:48.615Z,3.83
2023-01-29T04:44:26.881Z,3.85
2023-01-29T04:47:11.398Z,3.84
2023-01-29T04:49:47.063Z,3.85
2023-01-29T04:52:13.350Z,3.87
2023-01-29T04:54:48.317Z,3.90
2023-01-29T04:57:23.098Z,3.89
2023-01-29T05:00:00.527Z,3.86
2023-01-29T05:02:28.296Z,3.84
2023-01-29T05:04:58.440Z,3.83
2023-01-29T05:07:28.286Z,3.81
2023-01-29T05:09:55.931Z,3.80
2023-01-29T05:12:28.729Z,3.79
2023-01-29T05:15:00.232Z,3.79
2023-01-29T05:17:26.802Z,3.79
2023-01-29T05:19:54.909Z,3.79
2023-01-29T05:22:23.145Z,3.81
2023-01-29T05:24:50.560Z,3.80
2023-01-29T05:27:42.673Z,3.82
2023-01-29T05:30:10.326Z,3.81
2023-01-29T05:32:36.724Z,3.81
2023-01-29T05:35:03.214Z,3.83
2023-01-29T05:37:29.532Z,3.83
2023-01-29T05:39:55.879Z,3.84
2023-01-29T05:42:22.258Z,3.85
2023-01-29T05:44:48.596Z,3.85
2023-01-29T05:47:19.236Z,3.87
2023-01-29T05:52:20.541Z,3.87
2023-01-29T05:54:46.961Z,3.87
2023-01-29T05:57:14.732Z,3.88
2023-01-29T05:59:41.076Z,3.88
2023-01-29T06:02:07.432Z,3.89
2023-01-29T06:04:33.936Z,3.89
2023-01-29T06:07:03.259Z,3.89
2023-01-29T06:09:29.576Z,3.88
2023-01-29T06:11:55.965Z,3.89
2023-01-29T06:14:22.336Z,3.89
2023-01-29T06:16:48.682Z,3.89
2023-01-29T06:19:15.313Z,3.89
2023-01-29T06:21:41.639Z,3.89
2023-01-29T06:24:08.627Z,3.89
2023-01-29T06:26:35.117Z,3.89
2023-01-29T06:29:01.560Z,3.89
2023-01-29T06:31:38.188Z,3.89
2023-01-29T06:34:05.695Z,3.90
2023-01-29T06:36:32.235Z,3.89
2023-01-29T06:38:58.763Z,3.88
2023-01-29T06:41:25.553Z,3.88
2023-01-29T06:43:52.462Z,3.88
2023-01-29T06:46:18.843Z,3.88
2023-01-29T06:48:45.209Z,3.87
2023-01-29T06:51:11.849Z,3.89
2023-01-29T06:53:39.542Z,3.89
2023-01-29T06:56:06.760Z,3.90
2023-01-29T06:58:33.611Z,3.90
2023-01-29T07:01:34.591Z,3.92
2023-01-29T07:04:02.876Z,3.92
2023-01-29T07:06:29.478Z,3.92
2023-01-29T07:08:56.692Z,3.91
2023-01-29T07:11:23.172Z,3.91
2023-01-29T07:13:49.603Z,3.90
2023-01-29T07:16:16.045Z,3.90
2023-01-29T07:18:42.454Z,3.91
2023-01-29T07:21:08.814Z,3.91
2023-01-29T07:23:35.328Z,3.91
2023-01-29T07:26:06.304Z,3.92
2023-01-29T07:28:40.916Z,3.93
2023-01-29T07:31:08.000Z,3.91
2023-01-29T07:33:34.678Z,3.92
2023-01-29T07:36:01.161Z,3.93
2023-01-29T07:38:27.685Z,3.93
2023-01-29T07:40:54.333Z,3.93
2023-01-29T07:43:20.877Z,3.94
2023-01-29T07:45:47.403Z,3.95
2023-01-29T07:48:13.927Z,3.96
2023-01-29T07:50:41.395Z,3.97
2023-01-29T07:53:12.301Z,3.97
2023-01-29T07:55:38.731Z,3.98
2023-01-29T07:58:05.181Z,3.99
2023-01-29T08:00:31.760Z,4.00
2023-01-29T08:03:11.966Z,4.00
2023-01-29T08:05:38.343Z,3.99
2023-01-29T08:08:07.346Z,4.00
2023-01-29T08:10:38.344Z,4.01
2023-01-29T08:13:05.439Z,4.00
2023-01-29T08:15:33.054Z,4.01
2023-01-29T08:18:01.484Z,4.01
2023-01-29T08:20:28.458Z,4.00
2023-01-29T08:23:06.261Z,4.02
2023-01-29T08:25:32.877Z,4.03
2023-01-29T08:28:00.543Z,4.03
2023-01-29T08:30:30.483Z,4.03
2023-01-29T08:32:56.835Z,4.02
2023-01-29T08:35:23.990Z,4.04
2023-01-29T08:37:59.366Z,4.05
2023-01-29T08:40:27.332Z,4.06
2023-01-29T08:43:00.367Z,4.08
2023-01-29T08:45:27.951Z,4.09
2023-01-29T08:47:54.278Z,4.11
2023-01-29T08:50:20.843Z,4.11
2023-01-29T08:52:47.216Z,4.12
2023-01-29T08:55:14.083Z,4.13
2023-01-29T08:57:40.652Z,4.13
2023-01-29T09:00:10.282Z,4.14
2023-01-29T09:02:37.510Z,4.15
2023-01-29T09:05:04.076Z,4.16
2023-01-29T09:07:30.377Z,4.18
2023-01-29T09:09:56.735Z,4.20
2023-01-29T09:12:23.115Z,4.22
2023-01-29T09:14:49.412Z,4.25
2023-01-29T09:17:15.767Z,4.28
2023-01-29T09:19:42.112Z,4.31
2023-01-29T09:22:10.353Z,4.34
2023-01-29T09:24:37.326Z,4.37
2023-01-29T09:27:05.044Z,4.42
2023-01-29T09:29:32.299Z,4.43
2023-01-29T09:31:59.977Z,4.47
2023-01-29T09:34:26.338Z,4.51
2023-01-29T09:36:52.790Z,4.53
2023-01-29T09:39:19.134Z,4.56
2023-01-29T09:42:07.711Z,4.60
2023-01-29T09:45:02.516Z,4.65
2023-01-29T09:47:31.863Z,4.68
2023-01-29T09:50:05.698Z,4.71
2023-01-29T09:52:38.743Z,4.74
2023-01-29T09:55:26.157Z,4.77
2023-01-29T09:58:01.067Z,4.79
2023-01-29T10:00:30.287Z,4.81
2023-01-29T10:03:15.517Z,4.83
2023-01-29T10:06:03.530Z,4.87
2023-01-29T10:08:58.814Z,4.91
2023-01-29T10:12:11.013Z,4.97
2023-01-29T10:14:49.722Z,5.02
2023-01-29T10:17:36.304Z,5.07
2023-01-29T10:20:36.649Z,5.11
2023-01-29T10:23:18.135Z,5.14
2023-01-29T10:25:47.200Z,5.16
2023-01-29T10:28:29.339Z,5.18
2023-01-29T10:31:01.923Z,5.20
2023-01-29T10:34:01.975Z,5.24
2023-01-29T10:36:36.842Z,5.24
2023-01-29T10:39:03.256Z,5.23
2023-01-29T10:41:49.592Z,5.23
2023-01-29T10:44:40.185Z,5.23
2023-01-29T10:47:20.011Z,5.22
2023-01-29T10:50:01.798Z,5.22
2023-01-29T10:52:50.928Z,5.23
2023-01-29T10:55:36.356Z,5.25
2023-01-29T10:58:15.256Z,5.28
2023-01-29T11:00:42.189Z,5.30
2023-01-29T11:03:33.455Z,5.32
2023-01-29T11:06:23.540Z,5.33
2023-01-29T11:08:56.101Z,5.34
2023-01-29T11:11:32.980Z,5.35
2023-01-29T11:14:07.170Z,5.34
2023-01-29T11:16:42.326Z,5.34
2023-01-29T11:19:08.870Z,5.33
2023-01-29T11:21:58.970Z,5.33
2023-01-29T11:24:26.597Z,5.35
2023-01-29T11:26:57.076Z,5.36
2023-01-29T11:29:38.181Z,5.36
2023-01-29T11:32:08.082Z,5.37
2023-01-29T11:34:34.493Z,5.37
2023-01-29T11:37:15.026Z,5.37
2023-01-29T11:39:47.096Z,5.38
2023-01-29T11:42:22.564Z,5.40
2023-01-29T11:44:49.637Z,5.40
2023-01-29T11:47:15.954Z,5.40
2023-01-29T11:50:02.193Z,5.40
2023-01-29T11:52:40.771Z,5.42
2023-01-29T11:55:16.446Z,5.42
2023-01-29T11:57:48.486Z,5.41
2023-01-29T12:00:23.540Z,5.40
2023-01-29T12:02:54.255Z,5.41
2023-01-29T12:05:26.287Z,5.40
2023-01-29T12:08:01.278Z,5.39
2023-01-29T12:10:36.818Z,5.39
2023-01-29T12:13:20.098Z,5.38
2023-01-29T12:15:48.096Z,5.37
2023-01-29T12:18:35.456Z,5.38
2023-01-29T12:21:04.775Z,5.37
2023-01-29T12:24:16.247Z,5.36
2023-01-29T12:26:51.077Z,5.37
2023-01-29T12:29:39.431Z,5.37
2023-01-29T12:32:14.975Z,5.38
2023-01-29T12:34:53.129Z,5.37
2023-01-29T12:37:42.200Z,5.37
2023-01-29T12:40:13.844Z,5.37
2023-01-29T12:42:44.483Z,5.37
2023-01-29T12:45:18.629Z,5.36
2023-01-29T12:47:52.229Z,5.36
2023-01-29T12:50:27.502Z,5.35
2023-01-29T12:52:58.351Z,5.36
2023-01-29T12:55:29.384Z,5.37
2023-01-29T12:58:12.800Z,5.38
2023-01-29T13:00:44.800Z,5.38
2023-01-29T13:03:17.258Z,5.39
2023-01-29T13:05:46.296Z,5.39
2023-01-29T13:08:29.113Z,5.40
2023-01-29T13:10:58.460Z,5.40
2023-01-29T13:13:36.789Z,5.41
2023-01-29T13:16:07.349Z,5.42
2023-01-29T13:18:40.800Z,5.41
2023-01-29T13:21:14.180Z,5.42
2023-01-29T13:23:47.241Z,5.42
2023-01-29T13:26:18.783Z,5.42
2023-01-29T13:28:46.115Z,5.42
2023-01-29T13:31:40.868Z,5.44
2023-01-29T13:34:24.955Z,5.42
2023-01-29T13:36:57.324Z,5.42
2023-01-29T13:39:28.843Z,5.41
2023-01-29T13:41:56.923Z,5.40
2023-01-29T13:44:37.749Z,5.41
2023-01-29T13:47:20.208Z,5.41
2023-01-29T13:50:07.842Z,5.42
2023-01-29T13:52:56.450Z,5.42
2023-01-29T13:55:31.304Z,5.42
2023-01-29T13:58:21.221Z,5.41
2023-01-29T14:00:49.103Z,5.42
2023-01-29T14:03:15.425Z,5.41
2023-01-29T14:06:00.678Z,5.41
2023-01-29T14:08:37.717Z,5.41
2023-01-29T14:11:13.032Z,5.40
2023-01-29T14:13:39.747Z,5.39
2023-01-29T14:16:28.531Z,5.37
2023-01-29T14:19:02.006Z,5.38
2023-01-29T14:21:32.478Z,5.36
2023-01-29T14:24:09.636Z,5.36
2023-01-29T14:26:38.757Z,5.36
2023-01-29T14:29:33.891Z,5.36
2023-01-29T14:32:13.169Z,5.38
2023-01-29T14:34:47.781Z,5.39
2023-01-29T14:37:18.676Z,5.38
2023-01-29T14:40:11.539Z,5.37
2023-01-29T14:42:44.129Z,5.35
2023-01-29T14:45:22.529Z,5.31
2023-01-29T14:47:48.829Z,5.30
2023-01-29T14:50:33.501Z,5.27
2023-01-29T14:53:09.093Z,5.25
2023-01-29T14:55:41.793Z,5.26
2023-01-29T14:58:18.342Z,5.25
2023-01-29T15:00:50.355Z,5.23
2023-01-29T15:03:28.256Z,5.22
2023-01-29T15:05:55.815Z,5.21
2023-01-29T15:08:38.139Z,5.20
2023-01-29T15:11:36.034Z,5.19
2023-01-29T15:14:14.428Z,5.18
2023-01-29T15:17:07.890Z,5.17
2023-01-29T15:19:34.202Z,5.15
2023-01-29T15:22:13.140Z,5.15
2023-01-29T15:24:41.786Z,5.12
2023-01-29T15:27:14.397Z,5.12
2023-01-29T15:29:43.068Z,5.09
2023-01-29T15:32:16.799Z,5.09
2023-01-29T15:34:44.177Z,5.08
2023-01-29T15:37:30.856Z,5.07
2023-01-29T15:39:57.489Z,5.05
2023-01-29T15:42:25.783Z,5.03
2023-01-29T15:44:56.127Z,5.02
2023-01-29T15:47:31.076Z,5.00
2023-01-29T15:49:57.906Z,4.97
2023-01-29T15:52:28.694Z,4.95
2023-01-29T15:54:57.823Z,4.93
2023-01-29T15:57:37.246Z,4.91
2023-01-29T16:00:05.564Z,4.88
2023-01-29T16:02:34.998Z,4.87
2023-01-29T16:05:02.470Z,4.84
2023-01-29T16:07:30.063Z,4.84
2023-01-29T16:09:57.419Z,4.82
2023-01-29T16:12:24.334Z,4.81
2023-01-29T16:14:51.699Z,4.82
2023-01-29T16:17:35.454Z,4.80
2023-01-29T16:20:07.515Z,4.79
2023-01-29T16:22:36.973Z,4.77
2023-01-29T16:25:14.503Z,4.75
2023-01-29T16:27:43.931Z,4.75
2023-01-29T16:30:16.209Z,4.74
2023-01-29T16:32:42.899Z,4.73
2023-01-29T16:35:15.707Z,4.73
2023-01-29T16:37:46.633Z,4.73
2023-01-29T16:40:26.929Z,4.74
2023-01-29T16:43:41.910Z,4.73
2023-01-29T16:46:20.700Z,4.72
2023-01-29T16:48:47.799Z,4.71
2023-01-29T16:51:22.395Z,4.70
2023-01-29T16:54:00.984Z,4.69
2023-01-29T16:56:30.914Z,4.69
2023-01-29T16:58:58.212Z,4.69
2023-01-29T17:01:28.407Z,4.69
2023-01-29T17:04:07.547Z,4.68
2023-01-29T17:06:34.862Z,4.69
2023-01-29T17:09:02.479Z,4.69
2023-01-29T17:11:38.423Z,4.69
2023-01-29T17:14:07.294Z,4.69
2023-01-29T17:16:50.298Z,4.69
2023-01-29T17:19:20.671Z,4.69
2023-01-29T17:21:47.706Z,4.68
2023-01-29T17:24:14.207Z,4.67
2023-01-29T17:26:41.126Z,4.67
2023-01-29T17:29:13.857Z,4.69
2023-01-29T17:31:40.643Z,4.69
2023-01-29T17:34:14.929Z,4.70
2023-01-29T17:36:45.182Z,4.71
2023-01-29T17:39:17.090Z,4.71
2023-01-29T17:41:47.520Z,4.72
2023-01-29T17:44:13.980Z,4.71
2023-01-29T17:46:40.315Z,4.71
2023-01-29T17:49:26.558Z,4.72
2023-01-29T17:51:53.565Z,4.75
2023-01-29T17:54:20.208Z,4.74
2023-01-29T17:56:47.259Z,4.74
2023-01-29T17:59:16.023Z,4.72
2023-01-29T18:01:42.559Z,4.71
2023-01-29T18:04:09.432Z,4.70
2023-01-29T18:06:36.561Z,4.70
2023-01-29T18:09:03.608Z,4.70
2023-01-29T18:11:30.628Z,4.70
2023-01-29T18:13:57.400Z,4.70
2023-01-29T18:16:24.767Z,4.70
2023-01-29T18:18:52.385Z,4.71
2023-01-29T18:21:18.924Z,4.71
2023-01-29T18:23:45.387Z,4.70
2023-01-29T18:26:12.804Z,4.71
2023-01-29T18:28:39.188Z,4.71
2023-01-29T18:31:05.933Z,4.72
2023-01-29T18:33:34.287Z,4.72
2023-01-29T18:36:00.776Z,4.71
2023-01-29T18:38:27.474Z,4.71
2023-01-29T18:40:53.923Z,4.72
2023-01-29T18:43:20.268Z,4.72
2023-01-29T18:45:46.678Z,4.72
2023-01-29T18:48:14.127Z,4.72
2023-01-29T18:50:40.460Z,4.73
2023-01-29T18:53:07.596Z,4.73
2023-01-29T18:55:34.090Z,4.73
2023-01-29T18:58:27.495Z,4.73
2023-01-29T19:00:46.904Z,4.73
2023-01-29T19:03:13.392Z,4.73
2023-01-29T19:05:39.839Z,4.72
2023-01-29T19:08:06.388Z,4.71
2023-01-29T19:10:33.134Z,4.70
2023-01-29T19:12:59.547Z,4.70
2023-01-29T19:15:26.094Z,4.69
2023-01-29T19:17:52.777Z,4.69
2023-01-29T19:20:19.291Z,4.69
2023-01-29T19:22:45.792Z,4.68
2023-01-29T19:25:12.730Z,4.68
2023-01-29T19:27:39.192Z,4.69
2023-01-29T19:30:06.058Z,4.69
2023-01-29T19:32:32.905Z,4.68
2023-01-29T19:34:59.306Z,4.67
2023-01-29T19:37:25.811Z,4.67
2023-01-29T19:39:53.511Z,4.66
2023-01-29T19:42:20.799Z,4.66
2023-01-29T19:44:47.384Z,4.65
2023-01-29T19:47:13.821Z,4.65
2023-01-29T19:49:40.493Z,4.65
2023-01-29T19:52:14.738Z,4.65
2023-01-29T19:54:45.998Z,4.65
2023-01-29T19:57:12.406Z,4.66
2023-01-29T19:59:38.837Z,4.65
2023-01-29T20:02:05.546Z,4.65
2023-01-29T20:04:32.330Z,4.66
2023-01-29T20:06:59.555Z,4.65
2023-01-29T20:09:25.892Z,4.65
2023-01-29T20:11:52.222Z,4.65
2023-01-29T20:14:18.584Z,4.65
2023-01-29T20:16:44.973Z,4.64
2023-01-29T20:19:13.315Z,4.64
2023-01-29T20:21:41.799Z,4.65
2023-01-29T20:24:12.258Z,4.67
2023-01-29T20:26:38.932Z,4.67
2023-01-29T20:29:05.640Z,4.68
2023-01-29T20:31:32.014Z,4.70
2023-01-29T20:33:58.418Z,4.71
2023-01-29T20:36:24.735Z,4.72
2023-01-29T20:38:51.183Z,4.73
2023-01-29T20:41:19.272Z,4.75
2023-01-29T20:43:46.908Z,4.77
2023-01-29T20:46:13.959Z,4.79
2023-01-29T20:48:41.866Z,4.81
2023-01-29T20:51:12.989Z,4.83
2023-01-29T20:53:40.966Z,4.87
2023-01-29T20:56:08.401Z,4.88
2023-01-29T20:58:36.008Z,4.90
2023-01-29T21:01:17.268Z,4.93
2023-01-29T21:03:44.555Z,4.93
2023-01-29T21:06:11.330Z,4.96
2023-01-29T21:08:38.216Z,4.97
2023-01-29T21:11:06.265Z,4.98
2023-01-29T21:13:33.065Z,5.00
2023-01-29T21:15:59.830Z,4.99
2023-01-29T21:18:26.376Z,5.01
2023-01-29T21:20:53.576Z,5.04
2023-01-29T21:23:20.402Z,5.03
2023-01-29T21:25:46.759Z,5.06
2023-01-29T21:28:13.067Z,5.08
2023-01-29T21:30:39.583Z,5.10
2023-01-29T21:33:06.076Z,5.11
2023-01-29T21:35:32.480Z,5.12
2023-01-29T21:37:58.895Z,5.15
2023-01-29T21:40:29.731Z,5.14
2023-01-29T21:43:16.044Z,5.16
2023-01-29T21:45:43.036Z,5.17
2023-01-29T21:48:11.248Z,5.19
2023-01-29T21:50:38.821Z,5.19
2023-01-29T21:53:05.142Z,5.21
2023-01-29T21:55:32.445Z,5.24
2023-01-29T21:58:00.419Z,5.25
2023-01-29T22:00:27.223Z,5.28
2023-01-29T22:02:53.673Z,5.30
2023-01-29T22:05:20.534Z,5.32
2023-01-29T22:07:48.330Z,5.34
2023-01-29T22:10:16.841Z,5.36
2023-01-29T22:12:44.589Z,5.38
2023-01-29T22:15:13.011Z,5.40
2023-01-29T22:17:41.355Z,5.42
2023-01-29T22:20:12.418Z,5.45
2023-01-29T22:22:39.120Z,5.46
2023-01-29T22:25:06.274Z,5.50
2023-01-29T22:27:33.628Z,5.51
2023-01-29T22:30:00.096Z,5.53
2023-01-29T22:32:26.722Z,5.53
2023-01-29T22:34:53.143Z,5.55
2023-01-29T22:37:19.588Z,5.57
2023-01-29T22:39:45.906Z,5.58
2023-01-29T22:42:12.352Z,5.60
2023-01-29T22:44:38.769Z,5.61
2023-01-29T22:47:05.199Z,5.63
2023-01-29T22:49:32.167Z,5.63
2023-01-29T22:52:16.290Z,5.65
2023-01-29T22:54:43.608Z,5.65
2023-01-29T22:57:12.377Z,5.66
2023-01-29T22:59:39.098Z,5.66
2023-01-29T23:02:06.648Z,5.67
2023-01-29T23:04:33.181Z,5.67
2023-01-29T23:06:59.575Z,5.67
2023-01-29T23:09:26.062Z,5.68
2023-01-29T23:11:52.415Z,5.70
2023-01-29T23:14:18.884Z,5.70
2023-01-29T23:16:45.366Z,5.71
2023-01-29T23:19:12.217Z,5.75
2023-01-29T23:21:39.449Z,5.77
2023-01-29T23:24:07.139Z,5.79
2023-01-29T23:26:51.887Z,5.81
2023-01-29T23:29:18.324Z,5.83
2023-01-29T23:31:44.791Z,5.85
2023-01-29T23:34:11.358Z,5.87
2023-01-29T23:36:37.851Z,5.89
2023-01-29T23:39:04.513Z,5.91
2023-01-29T23:41:30.824Z,5.92
2023-01-29T23:43:57.376Z,5.93
2023-01-29T23:46:23.784Z,5.95
2023-01-29T23:48:50.125Z,5.97
2023-01-29T23:51:16.839Z,5.98
2023-01-29T23:53:43.240Z,6.01
2023-01-29T23:56:10.388Z,6.02
2023-01-29T23:58:36.776Z,6.03
